Time;durP1;ratioP1;P1;durP2;ratioP2;P2;SDS_P1;SDS_P2;PMS_P1;PMS_P2;Temp;Humidity;BMP_temperature;BMP_pressure;BME280_temperature;BME280_humidity;BME280_pressure;Samples;Min_cycle;Max_cycle;Signal;HPM_P1;HPM_P2
2023/09/15 00:00:32;;;;;;;;;;;;;;;16.35;54.86;100895.84;5078204;28;1130;-57
2023/09/15 00:02:58;;;;;;;;;;;;;;;16.29;54.83;100891.44;5059853;28;921;-57
2023/09/15 00:05:24;;;;;;;;;;;;;;;16.92;55.89;100896.84;5071252;28;1115;-57
2023/09/15 00:07:51;;;;;;;;;;;;;;;17.32;55.98;100891.66;5070372;28;1074;-56
2023/09/15 00:10:19;;;;;;;;;;;;;;;16.88;55.92;100893.00;5072819;28;1913;-56
2023/09/15 00:12:44;;;;;;;;;;;;;;;16.72;55.73;100894.88;5070447;28;1117;-56
2023/09/15 00:15:10;;;;;;;;;;;;;;;16.63;55.30;100898.41;5064200;28;913;-57
2023/09/15 00:17:40;;;;;;;;;;;;;;;16.54;55.20;100898.13;5066094;28;1062;-56
2023/09/15 00:20:13;;;;;;;;;;;;;;;16.49;54.91;100900.84;5064150;28;1059;-57
2023/09/15 00:22:40;;;;;;;;;;;;;;;16.38;55.02;100884.38;5078141;28;1074;-56
2023/09/15 00:25:05;;;;;;;;;;;;;;;16.32;54.54;100885.41;5059394;28;1155;-57
2023/09/15 00:27:31;;;;;;;;;;;;;;;16.30;54.54;100881.28;5077757;28;1061;-56
2023/09/15 00:29:56;;;;;;;;;;;;;;;16.30;54.51;100879.38;5077823;28;1910;-55
2023/09/15 00:32:22;;;;;;;;;;;;;;;16.68;55.75;100885.53;5064335;28;1083;-54
2023/09/15 00:34:47;;;;;;;;;;;;;;;17.61;55.66;100891.06;5064609;28;980;-55
2023/09/15 00:37:13;;;;;;;;;;;;;;;17.01;56.13;100907.28;5066234;28;1130;-53
2023/09/15 00:39:38;;;;;;;;;;;;;;;16.73;55.95;100893.78;5077494;28;1050;-57
2023/09/15 00:42:04;;;;;;;;;;;;;;;16.66;55.69;100895.13;5046741;28;1516;-57
2023/09/15 00:44:29;;;;;;;;;;;;;;;16.60;55.29;100899.78;5063800;28;1072;-56
2023/09/15 00:46:55;;;;;;;;;;;;;;;16.50;55.03;100891.53;5059790;28;1165;-56
2023/09/15 00:49:20;;;;;;;;;;;;;;;16.45;54.94;100891.50;5059164;28;1972;-57
2023/09/15 00:51:48;;;;;;;;;;;;;;;16.38;54.76;100889.84;5064237;28;1055;-57
2023/09/15 00:54:14;;;;;;;;;;;;;;;16.36;54.44;100897.50;5060322;28;1060;-57
2023/09/15 00:56:40;;;;;;;;;;;;;;;16.28;54.66;100884.31;5046800;28;1127;-57
2023/09/15 00:59:05;;;;;;;;;;;;;;;16.28;54.23;100889.78;5057790;28;1070;-57
2023/09/15 01:01:31;;;;;;;;;;;;;;;16.21;54.52;100883.75;5059870;28;1059;-57
2023/09/15 01:03:57;;;;;;;;;;;;;;;17.22;55.83;100887.00;5071227;28;1154;-57
2023/09/15 01:06:25;;;;;;;;;;;;;;;17.19;56.04;100887.50;5052721;28;1614;-57
2023/09/15 01:08:50;;;;;;;;;;;;;;;16.77;56.09;100883.91;5052840;28;1973;-56
2023/09/15 01:11:16;;;;;;;;;;;;;;;16.69;55.81;100883.59;5052257;28;1246;-56
2023/09/15 01:13:42;;;;;;;;;;;;;;;16.60;55.25;100878.63;5043297;28;1562;-58
2023/09/15 01:16:10;;;;;;;;;;;;;;;16.46;55.22;100882.19;5052464;28;1257;-56
2023/09/15 01:19:04;;;;;;;;;;;;;;;16.42;55.07;100882.72;5057231;28;1141;-57
2023/09/15 01:21:32;;;;;;;;;;;;;;;16.36;54.92;100874.75;5035056;28;1187;-57
2023/09/15 01:24:12;;;;;;;;;;;;;;;16.30;54.75;100875.81;5048058;28;1096;-57
2023/09/15 01:26:43;;;;;;;;;;;;;;;17.02;55.86;100879.53;5048529;28;1114;-56
2023/09/15 01:29:27;;;;;;;;;;;;;;;17.28;56.05;100879.56;5045467;28;1966;-57
2023/09/15 01:31:53;;;;;;;;;;;;;;;16.85;56.02;100877.03;5049316;28;1078;-55
2023/09/15 01:34:18;;;;;;;;;;;;;;;16.65;55.88;100872.34;5055125;28;1079;-57
2023/09/15 01:36:44;;;;;;;;;;;;;;;16.55;55.54;100864.91;5067029;28;1061;-57
2023/09/15 01:39:09;;;;;;;;;;;;;;;16.48;54.99;100878.06;5060163;28;1127;-56
2023/09/15 01:41:35;;;;;;;;;;;;;;;16.40;55.00;100878.59;5050211;28;1098;-56
2023/09/15 01:44:01;;;;;;;;;;;;;;;16.41;54.77;100872.84;5056661;28;1110;-57
2023/09/15 01:46:26;;;;;;;;;;;;;;;16.31;54.77;100877.47;5047343;28;1166;-56
2023/09/15 01:48:53;;;;;;;;;;;;;;;16.30;54.40;100871.16;5074797;28;1971;-57
2023/09/15 01:51:19;;;;;;;;;;;;;;;16.27;54.40;100871.69;5052534;28;897;-57
2023/09/15 01:53:44;;;;;;;;;;;;;;;16.80;55.77;100878.94;5045171;28;1135;-56
2023/09/15 01:56:10;;;;;;;;;;;;;;;17.21;55.97;100873.53;5057590;28;1063;-57
2023/09/15 01:58:35;;;;;;;;;;;;;;;16.83;55.85;100875.66;5052626;28;1138;-56
2023/09/15 02:01:01;;;;;;;;;;;;;;;16.57;55.91;100870.94;5058296;28;1147;-54
2023/09/15 02:03:26;;;;;;;;;;;;;;;16.54;55.59;100881.66;5073531;28;1154;-54
2023/09/15 02:05:52;;;;;;;;;;;;;;;16.45;55.34;100891.50;5056388;28;1051;-55
2023/09/15 02:08:18;;;;;;;;;;;;;;;16.36;55.14;100889.28;5040431;28;1965;-56
2023/09/15 02:10:44;;;;;;;;;;;;;;;16.30;54.70;100886.78;5067570;28;1114;-56
2023/09/15 02:13:10;;;;;;;;;;;;;;;16.89;56.03;100885.59;5038551;28;1134;-53
2023/09/15 02:15:35;;;;;;;;;;;;;;;17.28;55.94;100885.06;5070845;28;965;-55
2023/09/15 02:18:01;;;;;;;;;;;;;;;16.86;55.94;100888.88;5060651;28;1150;-57
2023/09/15 02:20:27;;;;;;;;;;;;;;;16.67;55.96;100878.38;5065112;28;1067;-56
2023/09/15 02:22:53;;;;;;;;;;;;;;;16.58;55.50;100877.28;5061791;28;1149;-56
2023/09/15 02:25:19;;;;;;;;;;;;;;;16.50;55.23;100886.03;5075506;28;1030;-55
2023/09/15 02:27:44;;;;;;;;;;;;;;;16.40;55.09;100884.91;5057203;28;1155;-56
2023/09/15 02:30:10;;;;;;;;;;;;;;;16.36;54.90;100878.31;5076246;28;1914;-58
2023/09/15 02:32:36;;;;;;;;;;;;;;;16.29;54.69;100885.16;5060490;28;1079;-57
2023/09/15 02:35:02;;;;;;;;;;;;;;;16.27;54.78;100888.16;5038115;28;1138;-57
2023/09/15 02:37:28;;;;;;;;;;;;;;;16.75;55.44;100875.09;5057995;28;1095;-57
2023/09/15 02:39:53;;;;;;;;;;;;;;;17.66;55.58;100879.25;5075685;28;1047;-57
2023/09/15 02:42:19;;;;;;;;;;;;;;;17.07;56.03;100879.56;5043359;28;1310;-57
2023/09/15 02:44:45;;;;;;;;;;;;;;;16.77;55.94;100872.94;5045816;28;1350;-53
2023/09/15 02:47:11;;;;;;;;;;;;;;;16.70;55.46;100877.81;5074984;28;1047;-55
2023/09/15 02:49:36;;;;;;;;;;;;;;;16.58;55.31;100885.50;5056007;28;1968;-57
2023/09/15 02:52:04;;;;;;;;;;;;;;;16.48;54.99;100882.72;5052523;28;1506;-57
2023/09/15 02:54:30;;;;;;;;;;;;;;;16.43;54.84;100892.59;5045671;28;1283;-56
2023/09/15 02:56:56;;;;;;;;;;;;;;;16.41;54.49;100889.31;5075028;28;1086;-57
2023/09/15 02:59:21;;;;;;;;;;;;;;;16.33;54.61;100881.59;5050044;28;1111;-56
2023/09/15 03:01:47;;;;;;;;;;;;;;;16.29;54.40;100882.41;5069580;28;1067;-56
2023/09/15 03:04:13;;;;;;;;;;;;;;;16.21;54.25;100884.56;5048675;28;1206;-53
2023/09/15 03:06:39;;;;;;;;;;;;;;;16.93;55.92;100889.44;5043284;28;1146;-51
2023/09/15 03:09:05;;;;;;;;;;;;;;;17.57;55.74;100885.31;5063478;28;1901;-51
2023/09/15 03:11:31;;;;;;;;;;;;;;;17.04;56.03;100884.75;5055443;28;1271;-54
2023/09/15 03:14:00;;;;;;;;;;;;;;;16.75;55.82;100879.78;5046088;28;1135;-49
2023/09/15 03:16:26;;;;;;;;;;;;;;;16.64;55.63;100887.16;5069598;28;929;-54
2023/09/15 03:18:52;;;;;;;;;;;;;;;16.53;55.34;100894.53;5046056;28;1254;-54
2023/09/15 03:21:19;;;;;;;;;;;;;;;16.47;55.15;100897.56;5074277;28;1085;-54
2023/09/15 03:23:46;;;;;;;;;;;;;;;16.46;54.63;100901.41;5054789;28;2563;-52
2023/09/15 03:26:13;;;;;;;;;;;;;;;16.37;54.45;100904.66;5054993;28;1186;-58
2023/09/15 03:28:39;;;;;;;;;;;;;;;16.32;54.40;100906.56;5055394;28;1980;-55
2023/09/15 03:31:05;;;;;;;;;;;;;;;16.25;54.22;100904.88;5061574;28;1093;-57
2023/09/15 03:33:31;;;;;;;;;;;;;;;16.30;54.11;100904.09;5048627;28;1315;-57
2023/09/15 03:35:57;;;;;;;;;;;;;;;17.34;55.99;100916.13;5058670;28;1218;-56
2023/09/15 03:38:22;;;;;;;;;;;;;;;17.01;56.13;100913.63;5040905;28;1107;-57
2023/09/15 03:40:48;;;;;;;;;;;;;;;16.69;55.81;100917.38;5064344;28;996;-57
2023/09/15 03:43:14;;;;;;;;;;;;;;;16.52;55.72;100925.00;5070435;28;1049;-55
2023/09/15 03:45:39;;;;;;;;;;;;;;;16.53;55.07;100932.16;5064852;28;1194;-54
2023/09/15 03:48:05;;;;;;;;;;;;;;;16.42;55.17;100932.13;5078718;28;1027;-50
2023/09/15 03:50:33;;;;;;;;;;;;;;;16.34;55.05;100926.31;5046999;28;1902;-53
2023/09/15 03:52:59;;;;;;;;;;;;;;;16.31;54.58;100933.16;5040154;28;2250;-54
2023/09/15 03:55:25;;;;;;;;;;;;;;;16.25;54.40;100926.00;5039891;28;1012;-55
2023/09/15 03:57:51;;;;;;;;;;;;;;;16.57;55.66;100936.03;5049738;28;1111;-54
2023/09/15 04:00:17;;;;;;;;;;;;;;;17.57;55.47;100925.72;5057520;28;1302;-52
2023/09/15 04:02:46;;;;;;;;;;;;;;;17.01;55.84;100940.25;5040064;28;1150;-54
2023/09/15 04:05:12;;;;;;;;;;;;;;;16.68;55.92;100945.94;5064640;28;1038;-55
2023/09/15 04:07:38;;;;;;;;;;;;;;;16.56;55.78;100945.34;5060251;28;1131;-57
2023/09/15 04:10:04;;;;;;;;;;;;;;;16.52;55.38;100955.19;5042959;28;1906;-53
2023/09/15 04:12:30;;;;;;;;;;;;;;;16.42;55.08;100962.31;5068606;28;932;-52
2023/09/15 04:14:55;;;;;;;;;;;;;;;16.36;54.71;100957.06;5071985;28;1106;-51
2023/09/15 04:17:21;;;;;;;;;;;;;;;16.33;54.53;100961.19;5049359;28;1158;-56
2023/09/15 04:19:47;;;;;;;;;;;;;;;16.26;54.61;100963.34;5043494;28;1081;-58
2023/09/15 04:22:12;;;;;;;;;;;;;;;16.20;54.78;100964.38;5057747;28;1526;-57
2023/09/15 04:24:38;;;;;;;;;;;;;;;16.21;54.86;100968.78;5053161;28;1799;-54
2023/09/15 04:27:03;;;;;;;;;;;;;;;17.38;55.88;100967.50;5041833;28;1221;-57
2023/09/15 04:29:29;;;;;;;;;;;;;;;17.04;56.41;100967.19;5075096;28;1897;-56
2023/09/15 04:31:54;;;;;;;;;;;;;;;16.70;56.25;100973.94;5039791;28;1220;-57
2023/09/15 04:34:20;;;;;;;;;;;;;;;16.68;55.40;100967.09;5055226;28;1571;-56
2023/09/15 04:36:45;;;;;;;;;;;;;;;16.45;55.60;100963.69;5034191;28;1171;-55
2023/09/15 04:39:11;;;;;;;;;;;;;;;16.43;55.02;100961.22;5041384;28;1087;-57
2023/09/15 04:41:36;;;;;;;;;;;;;;;17.27;55.51;100963.09;5050603;28;1229;-53
2023/09/15 04:44:03;;;;;;;;;;;;;;;16.52;54.81;100971.69;5070937;28;1039;-57
2023/09/15 04:46:29;;;;;;;;;;;;;;;16.32;53.29;100965.00;5047360;28;1313;-56
2023/09/15 04:48:55;;;;;;;;;;;;;;;16.20;51.88;100970.72;5045918;28;2107;-55
2023/09/15 04:51:20;;;;;;;;;;;;;;;16.14;50.68;100976.44;5056497;28;1209;-57
2023/09/15 04:53:46;;;;;;;;;;;;;;;16.53;52.23;100978.81;5054751;28;2528;-56
2023/09/15 04:56:12;;;;;;;;;;;;;;;16.68;53.42;100980.81;5059223;28;1542;-58
2023/09/15 04:58:37;;;;;;;;;;;;;;;16.45;51.81;100987.56;5063777;28;1146;-56
2023/09/15 05:01:07;;;;;;;;;;;;;;;16.40;50.92;100982.88;5059088;28;1339;-55
2023/09/15 05:03:33;;;;;;;;;;;;;;;16.33;50.10;100987.81;5058137;28;1250;-58
2023/09/15 05:06:00;;;;;;;;;;;;;;;16.28;49.37;100994.06;5067139;28;1123;-58
2023/09/15 05:08:25;;;;;;;;;;;;;;;16.92;51.24;100997.66;5052230;28;2036;-58
2023/09/15 05:10:52;;;;;;;;;;;;;;;16.65;50.43;100998.66;5039089;28;1298;-59
2023/09/15 05:13:18;;;;;;;;;;;;;;;16.48;50.15;101003.50;5070110;28;1071;-58
2023/09/15 05:15:44;;;;;;;;;;;;;;;16.34;49.27;100998.50;5044401;28;1221;-57
2023/09/15 05:18:10;;;;;;;;;;;;;;;16.34;48.65;100998.50;5038893;28;1310;-56
2023/09/15 05:20:35;;;;;;;;;;;;;;;17.02;50.53;101003.16;5056799;28;1055;-56
2023/09/15 05:23:02;;;;;;;;;;;;;;;16.69;49.76;101004.41;5052007;28;1903;-57
2023/09/15 05:25:28;;;;;;;;;;;;;;;16.52;48.99;101002.72;5039093;28;1561;-59
2023/09/15 05:27:55;;;;;;;;;;;;;;;17.34;50.45;101004.88;5053669;28;1366;-59
2023/09/15 05:30:21;;;;;;;;;;;;;;;16.96;50.86;101009.75;5058734;28;1914;-59
2023/09/15 05:32:47;;;;;;;;;;;;;;;16.68;49.86;101011.84;5041611;28;1142;-57
2023/09/15 05:35:12;;;;;;;;;;;;;;;16.62;49.00;101018.41;5038821;28;1122;-56
2023/09/15 05:37:38;;;;;;;;;;;;;;;16.56;48.20;101024.94;5038678;28;1142;-59
2023/09/15 05:40:04;;;;;;;;;;;;;;;16.53;47.76;101028.22;5042630;28;1129;-55
2023/09/15 05:42:29;;;;;;;;;;;;;;;16.90;48.67;101039.13;5051751;28;1119;-57
2023/09/15 05:44:55;;;;;;;;;;;;;;;17.05;49.97;101030.09;5057185;28;1148;-58
2023/09/15 05:47:21;;;;;;;;;;;;;;;16.84;49.13;101028.38;5072068;28;1107;-57
2023/09/15 05:49:46;;;;;;;;;;;;;;;16.72;48.44;101031.34;5049414;28;2009;-57
2023/09/15 05:52:12;;;;;;;;;;;;;;;16.53;48.14;101033.72;5067242;28;1098;-58
2023/09/15 05:54:37;;;;;;;;;;;;;;;16.56;47.41;101033.19;5067364;28;1038;-59
2023/09/15 05:57:03;;;;;;;;;;;;;;;16.51;47.18;101030.41;5058461;28;1192;-58
2023/09/15 05:59:28;;;;;;;;;;;;;;;16.55;46.76;101032.38;5067853;28;1062;-60
2023/09/15 06:01:55;;;;;;;;;;;;;;;16.74;47.49;101035.47;5069412;28;1091;-56
2023/09/15 06:04:21;;;;;;;;;;;;;;;16.96;48.87;101037.22;5062692;28;1047;-57
2023/09/15 06:06:46;;;;;;;;;;;;;;;16.69;48.46;101040.94;5075691;28;1159;-55
2023/09/15 06:09:12;;;;;;;;;;;;;;;16.66;48.76;101032.41;5076257;28;1897;-56
2023/09/15 06:11:37;;;;;;;;;;;;;;;16.84;50.34;101036.59;5075883;28;1185;-54
2023/09/15 06:14:03;;;;;;;;;;;;;;;16.75;49.87;101039.88;5067374;28;1221;-56
2023/09/15 06:16:28;;;;;;;;;;;;;;;16.87;50.92;101044.31;5068668;28;1068;-53
2023/09/15 06:18:54;;;;;;;;;;;;;;;17.03;50.52;101054.28;5056183;28;1122;-58
2023/09/15 06:21:19;;;;;;;;;;;;;;;16.80;49.51;101051.97;5058168;28;1257;-55
2023/09/15 06:23:45;;;;;;;;;;;;;;;16.71;48.69;101052.47;5067156;28;1053;-57
2023/09/15 06:26:10;;;;;;;;;;;;;;;16.70;48.25;101050.81;5069478;28;1127;-63
2023/09/15 06:28:36;;;;;;;;;;;;;;;16.72;47.72;101045.09;5062619;28;1984;-60
2023/09/15 06:31:01;;;;;;;;;;;;;;;16.65;47.14;101050.81;5062756;28;1134;-60
2023/09/15 06:33:27;;;;;;;;;;;;;;;16.63;46.90;101050.25;5075469;28;1046;-63
2023/09/15 06:35:53;;;;;;;;;;;;;;;16.53;47.00;101051.00;5075653;28;1137;-59
2023/09/15 06:38:19;;;;;;;;;;;;;;;16.48;46.76;101055.66;5076045;28;1030;-59
2023/09/15 06:40:44;;;;;;;;;;;;;;;16.51;46.74;101052.38;5075387;28;1138;-62
2023/09/15 06:43:10;;;;;;;;;;;;;;;16.45;46.73;101046.03;5076213;28;1166;-59
2023/09/15 06:45:35;;;;;;;;;;;;;;;16.43;46.48;101057.28;5075666;28;1113;-60
2023/09/15 06:48:01;;;;;;;;;;;;;;;16.43;46.56;101053.72;5067306;28;1137;-57
2023/09/15 06:50:26;;;;;;;;;;;;;;;16.36;46.48;101048.44;5055489;28;1973;-57
2023/09/15 06:52:52;;;;;;;;;;;;;;;16.32;46.51;101055.56;5055370;28;1145;-59
2023/09/15 06:55:17;;;;;;;;;;;;;;;16.37;46.25;101055.59;5056982;28;1070;-60
2023/09/15 06:57:43;;;;;;;;;;;;;;;16.35;46.31;101055.03;5050035;28;1150;-61
2023/09/15 07:00:09;;;;;;;;;;;;;;;16.36;45.98;101061.34;5056816;28;1042;-57
2023/09/15 07:02:34;;;;;;;;;;;;;;;16.32;46.25;101061.03;5075231;28;1109;-58
2023/09/15 07:05:00;;;;;;;;;;;;;;;16.50;46.68;101067.22;5066959;28;1138;-58
2023/09/15 07:07:27;;;;;;;;;;;;;;;16.82;48.16;101063.53;5056159;28;1119;-58
2023/09/15 07:09:52;;;;;;;;;;;;;;;16.55;48.14;101068.06;5059682;28;1906;-58
2023/09/15 07:12:18;;;;;;;;;;;;;;;16.55;47.19;101076.28;5079978;28;1244;-57
2023/09/15 07:14:43;;;;;;;;;;;;;;;16.46;47.25;101074.31;5078978;28;1082;-56
2023/09/15 07:17:09;;;;;;;;;;;;;;;16.48;47.13;101077.59;5071160;28;891;-58
2023/09/15 07:19:34;;;;;;;;;;;;;;;16.49;46.66;101080.09;5059515;28;1099;-60
2023/09/15 07:21:59;;;;;;;;;;;;;;;16.40;46.61;101077.03;5059925;28;1167;-57
2023/09/15 07:24:25;;;;;;;;;;;;;;;16.45;46.40;101076.22;5073168;28;1134;-58
2023/09/15 07:26:50;;;;;;;;;;;;;;;16.33;46.29;101078.38;5079203;28;1534;-56
2023/09/15 07:29:16;;;;;;;;;;;;;;;16.95;48.28;101085.03;5072631;28;1901;-58
2023/09/15 07:31:42;;;;;;;;;;;;;;;16.61;48.14;101082.63;5059189;28;1145;-58
2023/09/15 07:34:08;;;;;;;;;;;;;;;16.51;47.65;101088.06;5073621;28;1023;-61
2023/09/15 07:36:33;;;;;;;;;;;;;;;16.57;46.93;101085.06;5071490;28;1512;-61
2023/09/15 07:38:59;;;;;;;;;;;;;;;16.51;46.72;101093.53;5073080;28;1070;-58
2023/09/15 07:41:24;;;;;;;;;;;;;;;16.47;46.40;101096.00;5070418;28;848;-62
2023/09/15 07:43:53;;;;;;;;;;;;;;;16.39;46.66;101089.09;5072580;28;1130;-60
2023/09/15 07:46:19;;;;;;;;;;;;;;;16.35;46.40;101090.69;5058676;28;1114;-60
2023/09/15 07:48:44;;;;;;;;;;;;;;;16.38;46.39;101087.44;5072116;28;1975;-61
2023/09/15 07:51:13;;;;;;;;;;;;;;;16.36;46.27;101089.63;5066283;28;1034;-62
2023/09/15 07:53:39;;;;;;;;;;;;;;;16.35;46.09;101087.13;5065267;28;1090;-63
2023/09/15 07:56:05;;;;;;;;;;;;;;;16.28;46.24;101092.84;5079138;28;1045;-62
2023/09/15 07:58:30;;;;;;;;;;;;;;;16.33;46.09;101081.91;5077844;28;1125;-61
2023/09/15 08:00:57;;;;;;;;;;;;;;;16.26;46.20;101081.31;5066902;28;1127;-62
2023/09/15 08:03:22;;;;;;;;;;;;;;;16.31;45.81;101080.53;5064296;28;1204;-61
2023/09/15 08:05:48;;;;;;;;;;;;;;;16.24;46.22;101075.25;5060735;28;919;-63
2023/09/15 08:08:13;;;;;;;;;;;;;;;16.39;45.64;101071.81;5060217;28;1103;-62
2023/09/15 08:10:39;;;;;;;;;;;;;;;16.24;46.22;101075.25;5070554;28;1980;-61
2023/09/15 08:13:04;;;;;;;;;;;;;;;16.23;46.35;101082.69;5060950;28;1106;-58
2023/09/15 08:15:30;;;;;;;;;;;;;;;16.20;46.10;101074.13;5066131;28;1119;-59
2023/09/15 08:17:55;;;;;;;;;;;;;;;16.20;46.05;101074.13;5067433;28;1162;-57
2023/09/15 08:20:22;;;;;;;;;;;;;;;16.90;46.90;101082.25;5064440;28;932;-63
2023/09/15 08:22:47;;;;;;;;;;;;;;;16.53;47.90;101086.69;5069945;28;1006;-63
2023/09/15 08:25:14;;;;;;;;;;;;;;;16.53;47.70;101077.66;5078533;28;1218;-62
2023/09/15 08:27:39;;;;;;;;;;;;;;;16.48;47.53;101075.72;5065016;28;1150;-61
2023/09/15 08:30:06;;;;;;;;;;;;;;;16.41;47.24;101073.19;5077848;28;1981;-59
2023/09/15 08:32:32;;;;;;;;;;;;;;;16.39;46.90;101067.13;5072216;28;1054;-61
2023/09/15 08:34:58;;;;;;;;;;;;;;;16.63;47.51;101069.47;5058098;28;1113;-55
2023/09/15 08:37:24;;;;;;;;;;;;;;;16.55;48.42;101075.44;5071581;28;1115;-57
2023/09/15 08:39:49;;;;;;;;;;;;;;;16.55;47.88;101075.44;5057913;28;1075;-60
2023/09/15 08:42:21;;;;;;;;;;;;;;;16.51;47.16;101068.84;5070184;28;1162;-60
2023/09/15 08:44:46;;;;;;;;;;;;;;;16.48;47.17;101080.34;5078115;28;1085;-60
2023/09/15 08:47:12;;;;;;;;;;;;;;;16.40;46.73;101081.69;5044659;28;1170;-60
2023/09/15 08:49:37;;;;;;;;;;;;;;;16.47;46.53;101084.22;5066628;28;1906;-60
2023/09/15 08:52:05;;;;;;;;;;;;;;;16.40;46.38;101078.94;5058154;28;1230;-61
2023/09/15 08:54:31;;;;;;;;;;;;;;;16.32;46.59;101080.25;5062193;28;889;-62
2023/09/15 08:56:56;;;;;;;;;;;;;;;16.34;46.56;101072.59;5071070;28;1130;-62
2023/09/15 08:59:22;;;;;;;;;;;;;;;16.35;46.47;101074.22;5049629;28;1051;-58
2023/09/15 09:01:48;;;;;;;;;;;;;;;16.35;46.20;101076.97;5064623;28;1091;-59
2023/09/15 09:04:13;;;;;;;;;;;;;;;16.30;46.37;101078.88;5069145;28;1011;-60
2023/09/15 09:06:39;;;;;;;;;;;;;;;16.88;47.27;101073.44;5061094;28;1051;-59
2023/09/15 09:09:04;;;;;;;;;;;;;;;16.81;47.98;101070.91;5050866;28;1969;-60
2023/09/15 09:11:30;;;;;;;;;;;;;;;16.56;47.88;101077.97;5059588;28;1047;-60
2023/09/15 09:13:55;;;;;;;;;;;;;;;16.58;47.24;101074.94;5077599;28;1434;-60
2023/09/15 09:16:21;;;;;;;;;;;;;;;16.47;46.99;101068.56;5064189;28;1140;-61
2023/09/15 09:19:00;;;;;;;;;;;;;;;16.43;46.86;101072.94;5062599;28;940;-60
2023/09/15 09:21:26;;;;;;;;;;;;;;;16.39;46.80;101078.09;5071322;28;1087;-59
2023/09/15 09:23:52;;;;;;;;;;;;;;;16.38;46.42;101081.13;5068611;28;1066;-59
2023/09/15 09:26:17;;;;;;;;;;;;;;;16.39;46.46;101069.06;5064035;28;1047;-60
2023/09/15 09:28:43;;;;;;;;;;;;;;;16.40;46.31;101068.78;5066646;28;1906;-60
2023/09/15 09:31:09;;;;;;;;;;;;;;;16.46;45.93;101066.91;5069655;28;1032;-60
2023/09/15 09:33:36;;;;;;;;;;;;;;;16.36;46.09;101070.41;5066165;28;1119;-58
2023/09/15 09:36:14;;;;;;;;;;;;;;;16.28;46.08;101059.91;5065213;28;1149;-59
2023/09/15 09:38:46;;;;;;;;;;;;;;;16.29;46.04;101061.59;5057544;28;1134;-59
2023/09/15 09:41:12;;;;;;;;;;;;;;;16.31;45.94;101066.81;5056921;28;1071;-60
2023/09/15 09:43:37;;;;;;;;;;;;;;;16.28;45.95;101068.16;5057182;28;1358;-58
2023/09/15 09:46:04;;;;;;;;;;;;;;;16.31;45.67;101064.88;5044180;28;1055;-60
2023/09/15 09:48:29;;;;;;;;;;;;;;;16.30;45.88;101070.63;5076589;28;1975;-61
2023/09/15 09:50:55;;;;;;;;;;;;;;;16.35;45.70;101066.00;5058315;28;1080;-61
2023/09/15 09:53:32;;;;;;;;;;;;;;;16.76;47.55;101068.16;5038825;28;1051;-61
2023/09/15 09:55:58;;;;;;;;;;;;;;;16.56;47.49;101066.13;5057150;28;1064;-61
2023/09/15 09:58:24;;;;;;;;;;;;;;;16.45;47.00;101067.16;5056814;28;1166;-60
2023/09/15 10:00:50;;;;;;;;;;;;;;;16.39;46.78;101067.13;5056630;28;1507;-59
2023/09/15 10:03:16;;;;;;;;;;;;;;;16.35;46.61;101066.00;5069999;28;1071;-59
2023/09/15 10:05:42;;;;;;;;;;;;;;;16.41;46.26;101064.97;5056295;28;1138;-58
2023/09/15 10:08:08;;;;;;;;;;;;;;;16.38;46.12;101068.25;5038778;28;1063;-59
2023/09/15 10:10:33;;;;;;;;;;;;;;;16.29;46.39;101067.06;5056375;28;1981;-56
2023/09/15 10:12:59;;;;;;;;;;;;;;;16.37;45.98;101069.31;5070283;28;1163;-58
2023/09/15 10:15:25;;;;;;;;;;;;;;;16.34;46.07;101066.28;5051594;28;1078;-59
2023/09/15 10:17:50;;;;;;;;;;;;;;;16.23;46.15;101070.88;5050425;28;1004;-57
2023/09/15 10:20:16;;;;;;;;;;;;;;;16.25;45.99;101071.44;5075962;28;1031;-58
2023/09/15 10:22:41;;;;;;;;;;;;;;;16.28;45.88;101073.66;5057643;28;1154;-56
2023/09/15 10:25:14;;;;;;;;;;;;;;;16.24;45.92;101083.50;5054911;28;1027;-61
2023/09/15 10:27:41;;;;;;;;;;;;;;;16.20;46.00;101076.88;5068536;28;1062;-65
2023/09/15 10:30:07;;;;;;;;;;;;;;;16.23;46.09;101073.63;5075149;28;1980;-60
2023/09/15 10:32:37;;;;;;;;;;;;;;;16.22;45.89;101064.56;5076151;28;1102;-61
2023/09/15 10:35:03;;;;;;;;;;;;;;;16.24;45.86;101069.78;5067351;28;1105;-58
2023/09/15 10:37:29;;;;;;;;;;;;;;;16.24;45.80;101064.28;5038413;28;1127;-58
2023/09/15 10:39:57;;;;;;;;;;;;;;;16.28;45.77;101059.09;5064283;28;1155;-57
2023/09/15 10:42:23;;;;;;;;;;;;;;;16.14;46.14;101066.97;5075178;28;1086;-59
2023/09/15 10:44:48;;;;;;;;;;;;;;;16.28;45.94;101068.16;5078779;28;1074;-62
2023/09/15 10:47:15;;;;;;;;;;;;;;;16.20;45.74;101060.41;5049353;28;1035;-60
2023/09/15 10:49:47;;;;;;;;;;;;;;;16.30;45.81;101054.16;5071142;28;1906;-56
2023/09/15 10:52:13;;;;;;;;;;;;;;;16.92;47.38;101061.66;5062896;28;1064;-59
2023/09/15 10:54:38;;;;;;;;;;;;;;;16.54;47.73;101062.84;5079895;28;1114;-61
2023/09/15 10:57:04;;;;;;;;;;;;;;;16.52;47.21;101054.88;5077211;28;1063;-63
2023/09/15 10:59:29;;;;;;;;;;;;;;;16.46;47.06;101055.09;5060414;28;1019;-60
2023/09/15 11:01:55;;;;;;;;;;;;;;;17.09;47.89;101050.44;5041974;28;1172;-59
2023/09/15 11:04:21;;;;;;;;;;;;;;;16.76;48.00;101044.28;5069282;28;1011;-59
2023/09/15 11:06:50;;;;;;;;;;;;;;;16.62;47.51;101043.13;5079709;28;1067;-59
2023/09/15 11:09:15;;;;;;;;;;;;;;;17.23;48.26;101036.19;5079815;28;1906;-64
2023/09/15 11:11:45;;;;;;;;;;;;;;;16.89;48.14;101036.66;5062878;28;1190;-59
2023/09/15 11:14:17;;;;;;;;;;;;;;;16.81;47.30;101043.44;5072839;28;1075;-59
2023/09/15 11:16:46;;;;;;;;;;;;;;;17.44;48.28;101037.88;5060186;28;1090;-60
2023/09/15 11:19:12;;;;;;;;;;;;;;;17.03;48.41;101037.00;5060696;28;1072;-62
2023/09/15 11:21:41;;;;;;;;;;;;;;;16.97;47.62;101030.66;5053779;28;1286;-62
2023/09/15 11:24:08;;;;;;;;;;;;;;;16.87;47.14;101025.06;5073042;28;1102;-60
2023/09/15 11:26:33;;;;;;;;;;;;;;;16.80;46.96;101016.25;5059528;28;1059;-58
2023/09/15 11:28:59;;;;;;;;;;;;;;;16.80;46.42;101016.25;5075068;28;1980;-60
2023/09/15 11:31:24;;;;;;;;;;;;;;;16.74;46.19;101018.97;5077380;28;895;-60
2023/09/15 11:33:52;;;;;;;;;;;;;;;16.71;46.01;101015.97;5060981;28;1117;-58
2023/09/15 11:36:17;;;;;;;;;;;;;;;17.69;47.53;101018.94;5079439;28;1166;-59
2023/09/15 11:38:43;;;;;;;;;;;;;;;17.15;48.16;101015.56;5079393;28;1073;-60
2023/09/15 11:41:08;;;;;;;;;;;;;;;16.97;47.56;101019.66;5079294;28;1147;-60
2023/09/15 11:43:35;;;;;;;;;;;;;;;16.83;47.37;101022.06;5066968;28;1027;-58
2023/09/15 11:46:00;;;;;;;;;;;;;;;16.88;46.79;101013.00;5041618;28;1283;-59
2023/09/15 11:48:26;;;;;;;;;;;;;;;17.10;47.25;101016.38;5053086;28;1226;-58
2023/09/15 11:50:53;;;;;;;;;;;;;;;17.17;48.16;101023.56;5078612;28;1984;-57
2023/09/15 11:53:25;;;;;;;;;;;;;;;17.00;47.67;101021.88;5078496;28;1042;-56
2023/09/15 11:55:53;;;;;;;;;;;;;;;16.96;46.96;101020.75;5065953;28;1093;-59
2023/09/15 11:58:19;;;;;;;;;;;;;;;16.91;46.91;101013.34;5041755;28;1135;-56
2023/09/15 12:00:44;;;;;;;;;;;;;;;16.85;46.88;101014.34;5072420;28;1027;-57
2023/09/15 12:03:10;;;;;;;;;;;;;;;16.84;47.25;101009.13;5071625;28;1047;-58
2023/09/15 12:05:35;;;;;;;;;;;;;;;16.76;46.77;101008.56;5054886;28;1082;-57
2023/09/15 12:08:02;;;;;;;;;;;;;;;16.77;46.59;101007.47;5040941;28;883;-58
2023/09/15 12:10:28;;;;;;;;;;;;;;;16.72;46.49;101003.91;5072034;28;1914;-56
2023/09/15 12:12:57;;;;;;;;;;;;;;;16.74;46.19;101002.50;5058707;28;1060;-58
2023/09/15 12:15:23;;;;;;;;;;;;;;;16.75;46.14;100998.66;5078248;28;1110;-59
2023/09/15 12:17:48;;;;;;;;;;;;;;;16.69;46.21;100998.91;5078453;28;1094;-62
2023/09/15 12:20:14;;;;;;;;;;;;;;;16.67;45.95;100988.22;5047268;28;1422;-59
2023/09/15 12:22:40;;;;;;;;;;;;;;;16.69;45.90;100988.78;5078233;28;1082;-60
2023/09/15 12:25:06;;;;;;;;;;;;;;;16.65;45.86;100981.31;5078067;28;1046;-59
2023/09/15 12:27:32;;;;;;;;;;;;;;;16.59;46.01;100978.59;5065080;28;1054;-57
2023/09/15 12:30:00;;;;;;;;;;;;;;;16.55;46.08;100974.72;5064384;28;1902;-57
2023/09/15 12:32:26;;;;;;;;;;;;;;;16.60;45.82;100979.41;5076011;28;901;-57
2023/09/15 12:34:55;;;;;;;;;;;;;;;16.63;45.84;100978.84;5071752;28;1076;-56
2023/09/15 12:37:21;;;;;;;;;;;;;;;16.49;46.07;100977.72;5053324;28;1004;-54
2023/09/15 12:39:46;;;;;;;;;;;;;;;16.54;45.97;100977.75;5044367;28;917;-55
2023/09/15 12:42:13;;;;;;;;;;;;;;;16.43;46.15;100972.19;5070561;28;920;-60